Time;durP1;ratioP1;P1;durP2;ratioP2;P2;SDS_P1;SDS_P2;PMS_P1;PMS_P2;Temp;Humidity;BMP_temperature;BMP_pressure;BME280_temperature;BME280_humidity;BME280_pressure;Samples;Min_cycle;Max_cycle;Signal;HPM_P1;HPM_P2
2023/11/08 00:01:31;;;;;;;;;;;22.90;62.70;;;;;;5005103;28;1423;-70
2023/11/08 00:03:56;;;;;;;;;;;22.90;62.80;;;;;;4998613;28;1651;-70
2023/11/08 00:06:22;;;;;;;;;;;22.90;62.80;;;;;;5001815;28;1964;-70
2023/11/08 00:08:50;;;;;;;;;;;22.90;62.90;;;;;;5002712;28;1364;-70
2023/11/08 00:11:16;;;;;;;;;;;22.90;63.00;;;;;;5002102;28;1305;-70
2023/11/08 00:13:43;;;;;;;;;;;22.90;63.00;;;;;;5001296;28;1521;-70
2023/11/08 00:16:08;;;;;;;;;;;22.90;63.00;;;;;;5001576;28;1375;-70
2023/11/08 00:18:34;;;;;;;;;;;22.80;63.00;;;;;;5001432;28;1524;-70
2023/11/08 00:21:00;;;;;;;;;;;22.90;63.10;;;;;;5000248;28;1395;-70
2023/11/08 00:23:26;;;;;;;;;;;22.90;63.20;;;;;;5001767;28;1452;-70
2023/11/08 00:25:51;;;;;;;;;;;22.80;63.10;;;;;;5005838;28;1926;-70
2023/11/08 00:28:17;;;;;;;;;;;22.80;63.20;;;;;;5000917;28;1422;-70
2023/11/08 00:30:43;;;;;;;;;;;22.80;63.20;;;;;;5003386;28;1465;-70
2023/11/08 00:33:08;;;;;;;;;;;22.80;63.20;;;;;;4998540;28;1259;-70
2023/11/08 00:35:34;;;;;;;;;;;22.80;63.40;;;;;;4997725;28;1574;-70
2023/11/08 00:38:00;;;;;;;;;;;22.80;63.30;;;;;;5005212;28;1691;-70
2023/11/08 00:40:26;;;;;;;;;;;22.80;63.40;;;;;;5000362;28;1435;-70
2023/11/08 00:42:51;;;;;;;;;;;22.80;63.40;;;;;;4999981;28;1431;-70
2023/11/08 00:45:17;;;;;;;;;;;22.80;63.50;;;;;;5002586;28;1963;-70
2023/11/08 00:47:43;;;;;;;;;;;22.80;63.50;;;;;;4998541;28;1340;-70
2023/11/08 00:50:09;;;;;;;;;;;22.80;63.50;;;;;;5019736;28;1563;-70
2023/11/08 00:52:36;;;;;;;;;;;22.80;63.50;;;;;;5003385;28;1462;-70
2023/11/08 00:55:03;;;;;;;;;;;22.80;63.50;;;;;;5002179;28;1271;-70
2023/11/08 00:57:30;;;;;;;;;;;22.80;63.60;;;;;;5000009;28;1266;-70
2023/11/08 00:59:55;;;;;;;;;;;22.80;63.60;;;;;;4999693;28;1496;-70
2023/11/08 01:02:21;;;;;;;;;;;22.80;63.70;;;;;;4998113;28;1381;-69
2023/11/08 01:04:46;;;;;;;;;;;22.80;63.70;;;;;;4998839;28;1914;-70
2023/11/08 01:07:12;;;;;;;;;;;22.80;63.70;;;;;;5000905;28;1555;-70
2023/11/08 01:09:38;;;;;;;;;;;22.80;63.70;;;;;;5000206;28;2104;-70
2023/11/08 01:12:03;;;;;;;;;;;22.80;63.70;;;;;;4999783;28;1339;-71
2023/11/08 01:14:29;;;;;;;;;;;22.80;63.10;;;;;;4999993;28;1336;-70
2023/11/08 01:16:55;;;;;;;;;;;22.70;62.80;;;;;;4999870;28;1402;-70
2023/11/08 01:19:20;;;;;;;;;;;22.70;62.80;;;;;;5003665;28;1537;-69
2023/11/08 01:21:46;;;;;;;;;;;22.70;62.80;;;;;;5000403;28;1496;-69
2023/11/08 01:24:13;;;;;;;;;;;22.60;62.80;;;;;;5001155;28;1946;-70
2023/11/08 01:26:39;;;;;;;;;;;22.60;63.00;;;;;;4996222;28;1531;-70
2023/11/08 01:29:04;;;;;;;;;;;22.50;63.00;;;;;;5000113;28;1435;-70
2023/11/08 01:31:30;;;;;;;;;;;22.50;63.10;;;;;;4999307;28;1341;-70
2023/11/08 01:33:58;;;;;;;;;;;22.50;63.20;;;;;;5003517;28;1439;-69
2023/11/08 01:36:24;;;;;;;;;;;22.40;63.20;;;;;;5001381;28;1423;-69
2023/11/08 01:38:49;;;;;;;;;;;22.40;63.40;;;;;;5006211;28;1009;-68
2023/11/08 01:41:15;;;;;;;;;;;22.40;63.50;;;;;;5003811;28;1307;-69
2023/11/08 01:43:41;;;;;;;;;;;22.30;63.50;;;;;;5002483;28;1211;-69
2023/11/08 01:46:08;;;;;;;;;;;22.30;63.60;;;;;;5001037;28;1965;-69
2023/11/08 01:48:33;;;;;;;;;;;22.20;63.70;;;;;;4998440;28;1503;-68
2023/11/08 01:50:59;;;;;;;;;;;22.20;63.80;;;;;;5003824;28;1668;-71
2023/11/08 01:53:27;;;;;;;;;;;22.20;63.90;;;;;;5019700;28;1525;-69
2023/11/08 01:55:54;;;;;;;;;;;22.20;63.90;;;;;;5004940;28;1539;-69
2023/11/08 01:58:20;;;;;;;;;;;22.10;64.00;;;;;;5002228;28;1519;-70
2023/11/08 02:00:45;;;;;;;;;;;22.10;64.10;;;;;;5000649;28;1355;-70
2023/11/08 02:03:11;;;;;;;;;;;22.00;64.10;;;;;;5002073;28;1368;-70
2023/11/08 02:05:36;;;;;;;;;;;22.10;64.20;;;;;;5006690;28;1985;-69
2023/11/08 02:08:02;;;;;;;;;;;22.00;64.30;;;;;;5008588;28;1409;-70
2023/11/08 02:10:27;;;;;;;;;;;22.00;64.30;;;;;;5003214;28;1423;-70
2023/11/08 02:12:53;;;;;;;;;;;22.00;64.40;;;;;;5004860;28;1415;-71
2023/11/08 02:15:19;;;;;;;;;;;21.90;64.40;;;;;;5002867;28;1588;-70
2023/11/08 02:17:44;;;;;;;;;;;21.90;64.50;;;;;;5004407;28;1436;-69
2023/11/08 02:20:10;;;;;;;;;;;21.90;64.50;;;;;;5007956;28;1296;-69
2023/11/08 02:22:36;;;;;;;;;;;21.90;64.60;;;;;;5004895;28;1403;-70
2023/11/08 02:25:02;;;;;;;;;;;21.90;64.70;;;;;;5004181;28;1902;-70
2023/11/08 02:27:27;;;;;;;;;;;21.80;65.40;;;;;;5004036;28;1374;-70
2023/11/08 02:29:53;;;;;;;;;;;21.80;64.70;;;;;;5001156;28;1364;-68
2023/11/08 02:32:19;;;;;;;;;;;21.80;64.80;;;;;;5004920;28;2821;-69
2023/11/08 02:34:44;;;;;;;;;;;21.80;65.60;;;;;;5000069;28;1437;-68
2023/11/08 02:37:09;;;;;;;;;;;21.70;64.90;;;;;;5002697;28;1399;-69
2023/11/08 02:39:35;;;;;;;;;;;21.70;64.90;;;;;;5005267;28;1406;-70
2023/11/08 02:42:00;;;;;;;;;;;21.70;65.00;;;;;;5002325;28;1527;-69
2023/11/08 02:44:26;;;;;;;;;;;21.70;65.00;;;;;;5001277;28;1919;-69
2023/11/08 02:46:52;;;;;;;;;;;21.70;65.10;;;;;;5001599;28;1631;-70
2023/11/08 02:49:18;;;;;;;;;;;21.70;65.10;;;;;;5005823;28;1240;-69
2023/11/08 02:51:44;;;;;;;;;;;21.60;65.10;;;;;;5006089;28;1324;-69
2023/11/08 02:54:09;;;;;;;;;;;21.60;65.20;;;;;;5001407;28;1568;-68
2023/11/08 02:56:38;;;;;;;;;;;21.60;65.20;;;;;;5003138;28;1394;-69
2023/11/08 02:59:03;;;;;;;;;;;21.60;65.20;;;;;;5023009;28;1267;-68
2023/11/08 03:01:29;;;;;;;;;;;21.60;65.30;;;;;;5005191;28;1716;-68
2023/11/08 03:03:55;;;;;;;;;;;21.60;65.30;;;;;;5005263;28;1394;-68
2023/11/08 03:06:20;;;;;;;;;;;21.60;65.40;;;;;;5002844;28;1927;-68
2023/11/08 03:08:46;;;;;;;;;;;21.60;65.50;;;;;;5004215;28;1263;-68
2023/11/08 03:11:11;;;;;;;;;;;21.50;65.50;;;;;;5004762;28;1514;-68
2023/11/08 03:13:37;;;;;;;;;;;21.50;65.50;;;;;;5001252;28;1280;-68
2023/11/08 03:16:03;;;;;;;;;;;21.50;65.50;;;;;;5004768;28;1409;-68
2023/11/08 03:18:28;;;;;;;;;;;21.50;65.60;;;;;;5001428;28;1495;-69
2023/11/08 03:20:54;;;;;;;;;;;21.50;65.60;;;;;;5003313;28;1366;-68
2023/11/08 03:23:19;;;;;;;;;;;21.50;65.60;;;;;;5005202;28;1485;-68
2023/11/08 03:25:45;;;;;;;;;;;21.50;65.60;;;;;;5005290;28;1961;-68
2023/11/08 03:28:11;;;;;;;;;;;21.50;65.70;;;;;;5002488;28;1357;-69
2023/11/08 03:30:36;;;;;;;;;;;21.50;65.70;;;;;;5004356;28;1373;-70
2023/11/08 03:33:02;;;;;;;;;;;21.50;65.80;;;;;;5004088;28;1539;-70
2023/11/08 03:35:27;;;;;;;;;;;21.50;65.80;;;;;;5003166;28;1097;-70
2023/11/08 03:37:54;;;;;;;;;;;21.50;65.80;;;;;;5002957;28;1410;-70
2023/11/08 03:40:20;;;;;;;;;;;21.40;65.80;;;;;;5007052;28;1384;-70
2023/11/08 03:42:46;;;;;;;;;;;21.40;65.90;;;;;;5004705;28;1728;-70
2023/11/08 03:45:14;;;;;;;;;;;21.40;65.90;;;;;;5005408;28;1895;-69
2023/11/08 03:47:40;;;;;;;;;;;21.40;65.90;;;;;;5003289;28;1480;-69
2023/11/08 03:50:07;;;;;;;;;;;21.40;66.00;;;;;;5000423;28;840;-69
2023/11/08 03:52:32;;;;;;;;;;;21.40;66.00;;;;;;5004522;28;1281;-69
2023/11/08 03:54:59;;;;;;;;;;;21.40;66.00;;;;;;5000994;28;1253;-69
2023/11/08 03:57:24;;;;;;;;;;;21.40;66.10;;;;;;5001302;28;1273;-69
2023/11/08 03:59:50;;;;;;;;;;;21.30;66.00;;;;;;5002779;28;1419;-70
2023/11/08 04:02:17;;;;;;;;;;;21.30;66.10;;;;;;5002802;28;1731;-69
2023/11/08 04:04:44;;;;;;;;;;;21.30;66.10;;;;;;5003670;28;1914;-70
2023/11/08 04:07:09;;;;;;;;;;;21.30;66.10;;;;;;5002215;28;1353;-69
2023/11/08 04:09:35;;;;;;;;;;;21.30;66.20;;;;;;4999360;28;1361;-69
2023/11/08 04:12:00;;;;;;;;;;;21.30;66.20;;;;;;5005039;28;1905;-70
2023/11/08 04:14:26;;;;;;;;;;;21.30;66.20;;;;;;5002321;28;1098;-68
2023/11/08 04:16:53;;;;;;;;;;;21.30;66.20;;;;;;5000700;28;1222;-68
2023/11/08 04:19:19;;;;;;;;;;;21.30;66.30;;;;;;5004264;28;1274;-68
2023/11/08 04:21:44;;;;;;;;;;;21.30;66.20;;;;;;5000439;28;1383;-69
2023/11/08 04:24:10;;;;;;;;;;;21.30;66.30;;;;;;5003516;28;963;-68
2023/11/08 04:26:35;;;;;;;;;;;21.20;66.30;;;;;;5004948;28;1967;-69
2023/11/08 04:29:01;;;;;;;;;;;21.20;66.30;;;;;;5003805;28;1310;-68
2023/11/08 04:31:27;;;;;;;;;;;21.20;66.30;;;;;;5001278;28;1308;-69
2023/11/08 04:33:53;;;;;;;;;;;21.30;66.40;;;;;;5001226;28;1354;-68
2023/11/08 04:36:18;;;;;;;;;;;21.20;66.30;;;;;;5001019;28;1179;-68
2023/11/08 04:38:45;;;;;;;;;;;21.20;66.40;;;;;;4996978;28;1320;-68
2023/11/08 04:41:14;;;;;;;;;;;21.20;66.40;;;;;;5002049;28;1502;-68
2023/11/08 04:43:43;;;;;;;;;;;21.20;66.40;;;;;;5006333;28;1256;-68
2023/11/08 04:46:11;;;;;;;;;;;21.20;66.40;;;;;;5004091;28;1902;-69
2023/11/08 04:48:36;;;;;;;;;;;21.20;66.40;;;;;;5000745;28;1297;-69
2023/11/08 04:51:02;;;;;;;;;;;21.20;66.50;;;;;;5003497;28;1375;-68
2023/11/08 04:53:27;;;;;;;;;;;21.20;66.50;;;;;;5001365;28;1373;-69
2023/11/08 04:55:53;;;;;;;;;;;21.20;66.50;;;;;;5002332;28;1300;-68
2023/11/08 04:58:19;;;;;;;;;;;21.20;66.50;;;;;;5000861;28;1364;-68
2023/11/08 05:00:44;;;;;;;;;;;21.20;66.50;;;;;;5001316;28;1343;-69
2023/11/08 05:03:10;;;;;;;;;;;21.10;66.50;;;;;;5003964;28;1264;-69
2023/11/08 05:05:35;;;;;;;;;;;21.20;66.60;;;;;;5001479;28;1969;-68
2023/11/08 05:08:01;;;;;;;;;;;21.10;66.60;;;;;;5002380;28;1328;-68
2023/11/08 05:10:26;;;;;;;;;;;21.10;66.60;;;;;;5002004;28;1492;-69
2023/11/08 05:12:52;;;;;;;;;;;21.10;66.60;;;;;;4999378;28;1398;-69
2023/11/08 05:15:17;;;;;;;;;;;21.10;66.60;;;;;;5001547;28;1473;-69
2023/11/08 05:17:43;;;;;;;;;;;21.10;66.60;;;;;;5002630;28;1450;-69
2023/11/08 05:20:10;;;;;;;;;;;21.10;66.70;;;;;;5002654;28;1391;-69
2023/11/08 05:22:35;;;;;;;;;;;21.10;66.70;;;;;;5002770;28;1310;-69
2023/11/08 05:25:01;;;;;;;;;;;21.10;66.70;;;;;;5001937;28;1965;-69
2023/11/08 05:27:26;;;;;;;;;;;21.10;67.50;;;;;;5002199;28;1250;-69
2023/11/08 05:29:53;;;;;;;;;;;21.10;66.70;;;;;;5001523;28;1255;-69
2023/11/08 05:32:20;;;;;;;;;;;21.10;66.70;;;;;;5003920;28;1387;-68
2023/11/08 05:34:47;;;;;;;;;;;21.10;66.70;;;;;;5004966;28;1310;-69
2023/11/08 05:37:12;;;;;;;;;;;21.10;66.70;;;;;;4999230;28;1273;-68
2023/11/08 05:39:37;;;;;;;;;;;21.10;66.80;;;;;;5002968;28;888;-68
2023/11/08 05:42:03;;;;;;;;;;;21.10;66.80;;;;;;5008709;28;1324;-69
2023/11/08 05:44:29;;;;;;;;;;;21.10;66.80;;;;;;4998488;28;1934;-72
2023/11/08 05:46:54;;;;;;;;;;;21.10;66.90;;;;;;5002789;28;1900;-66
2023/11/08 05:49:20;;;;;;;;;;;21.10;66.80;;;;;;5003840;28;2072;-67
2023/11/08 05:51:45;;;;;;;;;;;21.10;66.80;;;;;;5005160;28;1529;-68
2023/11/08 05:54:11;;;;;;;;;;;21.10;66.70;;;;;;5004704;28;1351;-67
2023/11/08 05:56:36;;;;;;;;;;;21.10;66.70;;;;;;5001388;28;1493;-68
2023/11/08 05:59:02;;;;;;;;;;;21.10;66.60;;;;;;5002472;28;1548;-68
2023/11/08 06:01:27;;;;;;;;;;;21.10;66.50;;;;;;5003938;28;1452;-68
2023/11/08 06:03:53;;;;;;;;;;;21.10;66.50;;;;;;5004789;28;1363;-70
2023/11/08 06:06:18;;;;;;;;;;;21.10;66.40;;;;;;5002996;28;1973;-70
2023/11/08 06:08:48;;;;;;;;;;;21.10;66.30;;;;;;5005543;28;1380;-70
2023/11/08 06:11:15;;;;;;;;;;;21.20;66.30;;;;;;5003450;28;1300;-70
2023/11/08 06:13:44;;;;;;;;;;;21.20;66.20;;;;;;5003134;28;1440;-69
2023/11/08 06:16:10;;;;;;;;;;;21.20;66.20;;;;;;5002690;28;1370;-70
2023/11/08 06:18:35;;;;;;;;;;;21.20;66.10;;;;;;5006411;28;1317;-70
2023/11/08 06:21:01;;;;;;;;;;;21.30;63.00;;;;;;5002386;28;1669;-69
2023/11/08 06:23:26;;;;;;;;;;;21.20;58.80;;;;;;5006515;28;1252;-69
2023/11/08 06:25:52;;;;;;;;;;;21.20;56.50;;;;;;5005182;28;1902;-69
2023/11/08 06:28:17;;;;;;;;;;;21.20;55.80;;;;;;5002401;28;1289;-69
2023/11/08 06:30:43;;;;;;;;;;;21.20;55.60;;;;;;4985735;28;1283;-69
2023/11/08 06:33:08;;;;;;;;;;;21.20;54.90;;;;;;5005144;28;1347;-70
2023/11/08 06:35:37;;;;;;;;;;;21.20;58.20;;;;;;5007476;28;1328;-69
2023/11/08 06:38:02;;;;;;;;;;;21.20;58.50;;;;;;4991311;28;1395;-69
2023/11/08 06:40:27;;;;;;;;;;;21.20;57.10;;;;;;4997155;28;1557;-68
2023/11/08 06:42:53;;;;;;;;;;;21.20;56.70;;;;;;5003016;28;1355;-69
2023/11/08 06:45:20;;;;;;;;;;;21.20;56.80;;;;;;5003803;28;1894;-68
2023/11/08 06:47:45;;;;;;;;;;;21.20;56.90;;;;;;5003275;28;1391;-69
2023/11/08 06:50:11;;;;;;;;;;;21.20;57.00;;;;;;5001927;28;1567;-69
2023/11/08 06:52:39;;;;;;;;;;;21.20;57.10;;;;;;5002334;28;1308;-68
2023/11/08 06:55:05;;;;;;;;;;;21.20;57.30;;;;;;5003535;28;1103;-69
2023/11/08 06:57:31;;;;;;;;;;;21.20;57.50;;;;;;5004293;28;1498;-69
2023/11/08 06:59:57;;;;;;;;;;;21.20;57.80;;;;;;5001331;28;1428;-70
2023/11/08 07:02:22;;;;;;;;;;;21.20;58.00;;;;;;5003737;28;1482;-69
2023/11/08 07:04:48;;;;;;;;;;;21.20;58.30;;;;;;5006042;28;1963;-69
2023/11/08 07:07:13;;;;;;;;;;;21.20;58.60;;;;;;5017389;28;1368;-69
2023/11/08 07:09:39;;;;;;;;;;;21.20;58.80;;;;;;5001412;28;1438;-68
2023/11/08 07:12:04;;;;;;;;;;;21.20;59.00;;;;;;5001411;28;1327;-68
2023/11/08 07:14:30;;;;;;;;;;;21.20;59.10;;;;;;5002820;28;1126;-68
2023/11/08 07:16:55;;;;;;;;;;;21.20;59.30;;;;;;5018118;28;1008;-69
2023/11/08 07:19:21;;;;;;;;;;;21.20;59.30;;;;;;4999553;28;1095;-68
2023/11/08 07:21:47;;;;;;;;;;;21.20;59.50;;;;;;5016299;28;1379;-68
2023/11/08 07:24:12;;;;;;;;;;;21.20;59.60;;;;;;5001410;28;1213;-68
2023/11/08 07:26:37;;;;;;;;;;;21.20;59.70;;;;;;5001759;28;1899;-70
2023/11/08 07:29:04;;;;;;;;;;;21.20;59.80;;;;;;4993556;28;1617;-71
2023/11/08 07:31:30;;;;;;;;;;;21.20;59.90;;;;;;5014853;28;1459;-71
2023/11/08 07:33:56;;;;;;;;;;;21.20;60.00;;;;;;5000350;28;1748;-69
2023/11/08 07:36:23;;;;;;;;;;;21.20;60.00;;;;;;5002207;28;1341;-68
2023/11/08 07:38:50;;;;;;;;;;;21.20;60.20;;;;;;5004270;28;1750;-69
2023/11/08 07:41:19;;;;;;;;;;;21.20;60.30;;;;;;5003617;28;1284;-73
2023/11/08 07:43:44;;;;;;;;;;;21.30;60.50;;;;;;5005713;28;1495;-71
2023/11/08 07:46:10;;;;;;;;;;;21.30;60.60;;;;;;5000501;28;1895;-70
2023/11/08 07:48:36;;;;;;;;;;;21.20;60.60;;;;;;5002276;28;1428;-69
2023/11/08 07:51:03;;;;;;;;;;;21.20;60.70;;;;;;5018236;28;1486;-69
2023/11/08 07:53:28;;;;;;;;;;;21.20;60.80;;;;;;5003251;28;1572;-69
2023/11/08 07:55:54;;;;;;;;;;;21.20;61.60;;;;;;4998588;28;1623;-68
2023/11/08 07:58:20;;;;;;;;;;;21.20;61.40;;;;;;5002420;28;1095;-68
2023/11/08 08:00:45;;;;;;;;;;;21.20;61.50;;;;;;5017794;28;1278;-69
2023/11/08 08:03:13;;;;;;;;;;;21.20;61.60;;;;;;5004441;28;1286;-68
2023/11/08 08:05:42;;;;;;;;;;;21.20;61.60;;;;;;5002274;28;1942;-68
2023/11/08 08:08:08;;;;;;;;;;;21.20;61.60;;;;;;5001254;28;1249;-68
2023/11/08 08:10:34;;;;;;;;;;;21.20;61.70;;;;;;5000903;28;1493;-68
2023/11/08 08:13:05;;;;;;;;;;;21.20;61.80;;;;;;5002375;28;1401;-68
2023/11/08 08:15:30;;;;;;;;;;;21.20;61.80;;;;;;5001578;28;1570;-68
2023/11/08 08:17:56;;;;;;;;;;;21.20;61.80;;;;;;4999162;28;1524;-68
2023/11/08 08:20:22;;;;;;;;;;;21.10;61.90;;;;;;4999971;28;1337;-68
2023/11/08 08:22:47;;;;;;;;;;;21.10;62.00;;;;;;5004009;28;1503;-68
2023/11/08 08:25:13;;;;;;;;;;;21.10;62.00;;;;;;5002822;28;1894;-68
2023/11/08 08:27:40;;;;;;;;;;;21.10;62.10;;;;;;5001155;28;1416;-68
2023/11/08 08:30:14;;;;;;;;;;;21.10;62.20;;;;;;4999022;28;1705;-69
2023/11/08 08:32:45;;;;;;;;;;;21.10;62.30;;;;;;5001959;28;1318;-68
2023/11/08 08:35:11;;;;;;;;;;;21.10;62.30;;;;;;5001992;28;1436;-67
2023/11/08 08:37:36;;;;;;;;;;;21.10;62.40;;;;;;5002417;28;1549;-67
2023/11/08 08:40:10;;;;;;;;;;;21.10;62.40;;;;;;5001038;28;1269;-68
2023/11/08 08:42:45;;;;;;;;;;;21.10;63.20;;;;;;4999205;28;1365;-68
2023/11/08 08:45:10;;;;;;;;;;;21.10;62.50;;;;;;5001076;28;1949;-68
2023/11/08 08:47:37;;;;;;;;;;;21.10;62.60;;;;;;5003820;28;1443;-68
2023/11/08 08:50:03;;;;;;;;;;;21.10;62.60;;;;;;4995551;28;1241;-68
2023/11/08 08:52:29;;;;;;;;;;;21.10;62.60;;;;;;5005532;28;1382;-68
2023/11/08 08:54:54;;;;;;;;;;;21.10;62.50;;;;;;5002799;28;1425;-68
2023/11/08 08:57:20;;;;;;;;;;;21.10;62.60;;;;;;5001564;28;1289;-67
2023/11/08 08:59:45;;;;;;;;;;;21.20;62.50;;;;;;5000636;28;1303;-68
2023/11/08 09:02:11;;;;;;;;;;;21.20;62.50;;;;;;5004012;28;1652;-68
2023/11/08 09:04:37;;;;;;;;;;;21.20;62.40;;;;;;5002805;28;1991;-68
2023/11/08 09:07:03;;;;;;;;;;;21.30;62.30;;;;;;5001610;28;1476;-68
2023/11/08 09:09:28;;;;;;;;;;;21.30;62.10;;;;;;5002545;28;1520;-67
2023/11/08 09:11:54;;;;;;;;;;;21.40;62.10;;;;;;4999486;28;1527;-69
2023/11/08 09:14:20;;;;;;;;;;;21.40;62.10;;;;;;5003208;28;1374;-69
2023/11/08 09:16:46;;;;;;;;;;;21.40;62.00;;;;;;5006966;28;1327;-68
2023/11/08 09:19:12;;;;;;;;;;;21.40;61.90;;;;;;5003358;28;1456;-68
2023/11/08 09:21:37;;;;;;;;;;;21.50;61.90;;;;;;5007338;28;1446;-68
2023/11/08 09:24:06;;;;;;;;;;;21.50;61.80;;;;;;5006847;28;1461;-69
2023/11/08 09:26:40;;;;;;;;;;;21.50;61.70;;;;;;5018045;28;1971;-69
2023/11/08 09:29:06;;;;;;;;;;;21.50;61.70;;;;;;5018589;28;1696;-68
2023/11/08 09:31:32;;;;;;;;;;;21.50;61.60;;;;;;5008588;28;1719;-69
2023/11/08 09:33:59;;;;;;;;;;;21.50;61.60;;;;;;5005617;28;1484;-69
2023/11/08 09:36:25;;;;;;;;;;;21.50;61.60;;;;;;5005179;28;1310;-69
2023/11/08 09:38:51;;;;;;;;;;;21.50;61.60;;;;;;5008356;28;1486;-69
2023/11/08 09:41:18;;;;;;;;;;;21.50;61.60;;;;;;5004467;28;1720;-68
2023/11/08 09:43:44;;;;;;;;;;;21.50;61.50;;;;;;5004697;28;1378;-68
2023/11/08 09:46:09;;;;;;;;;;;21.50;61.60;;;;;;5008025;28;1907;-68
2023/11/08 09:48:35;;;;;;;;;;;21.50;61.50;;;;;;5001715;28;1450;-69
2023/11/08 09:51:02;;;;;;;;;;;21.50;61.60;;;;;;5010464;28;1521;-68
2023/11/08 09:53:27;;;;;;;;;;;21.50;61.60;;;;;;5003080;28;1108;-68
2023/11/08 09:55:53;;;;;;;;;;;21.50;61.60;;;;;;5001047;28;1035;-68
2023/11/08 09:58:19;;;;;;;;;;;21.50;61.70;;;;;;5007523;28;1090;-68
2023/11/08 10:00:44;;;;;;;;;;;21.50;61.70;;;;;;5004975;28;1079;-69
2023/11/08 10:03:10;;;;;;;;;;;21.50;61.80;;;;;;5006953;28;1455;-69
2023/11/08 10:05:37;;;;;;;;;;;21.50;61.80;;;;;;5007733;28;1966;-69
2023/11/08 10:08:09;;;;;;;;;;;21.50;61.90;;;;;;5002027;28;1028;-69
2023/11/08 10:10:34;;;;;;;;;;;21.50;61.90;;;;;;5006446;28;1169;-69
2023/11/08 10:13:04;;;;;;;;;;;21.50;62.00;;;;;;5004769;28;1398;-70
2023/11/08 10:15:30;;;;;;;;;;;21.50;62.10;;;;;;5004407;28;1372;-69
2023/11/08 10:17:56;;;;;;;;;;;21.50;62.10;;;;;;5001140;28;922;-69
2023/11/08 10:20:21;;;;;;;;;;;21.50;62.20;;;;;;5005048;28;1205;-69
2023/11/08 10:22:47;;;;;;;;;;;21.40;62.10;;;;;;5004906;28;1406;-69
2023/11/08 10:25:12;;;;;;;;;;;21.40;62.20;;;;;;5018793;28;1906;-69
2023/11/08 10:27:38;;;;;;;;;;;21.40;62.10;;;;;;5006474;28;1116;-69
2023/11/08 10:30:09;;;;;;;;;;;21.40;62.20;;;;;;5015077;28;1351;-69
2023/11/08 10:32:36;;;;;;;;;;;21.40;62.20;;;;;;5003973;28;1356;-69
2023/11/08 10:35:11;;;;;;;;;;;21.40;62.20;;;;;;5001911;28;1362;-69
2023/11/08 10:37:36;;;;;;;;;;;21.40;62.20;;;;;;5002396;28;1433;-69
2023/11/08 10:40:02;;;;;;;;;;;21.40;62.20;;;;;;5001687;28;1474;-69
2023/11/08 10:42:27;;;;;;;;;;;21.50;62.30;;;;;;5004329;28;1457;-69
2023/11/08 10:45:05;;;;;;;;;;;21.50;62.30;;;;;;5000116;28;1906;-69
2023/11/08 10:47:30;;;;;;;;;;;21.50;62.20;;;;;;5003904;28;1453;-69
2023/11/08 10:49:56;;;;;;;;;;;21.50;62.20;;;;;;5001588;28;1394;-69
2023/11/08 10:52:21;;;;;;;;;;;21.50;62.20;;;;;;5003825;28;1426;-69
2023/11/08 10:54:47;;;;;;;;;;;21.50;62.20;;;;;;4999178;28;1603;-69
2023/11/08 10:57:13;;;;;;;;;;;21.50;62.20;;;;;;5016482;28;1156;-69
2023/11/08 10:59:40;;;;;;;;;;;21.50;62.20;;;;;;5006771;28;1447;-69
2023/11/08 11:02:12;;;;;;;;;;;21.50;62.20;;;;;;5011621;28;4172;-69
2023/11/08 11:04:37;;;;;;;;;;;21.50;62.20;;;;;;5000607;28;1983;-69
2023/11/08 11:07:05;;;;;;;;;;;21.50;62.20;;;;;;5003067;28;1626;-69
2023/11/08 11:09:30;;;;;;;;;;;21.50;62.20;;;;;;5000151;28;1591;-68
2023/11/08 11:11:57;;;;;;;;;;;21.50;62.20;;;;;;5003331;28;1464;-69
2023/11/08 11:14:26;;;;;;;;;;;21.50;62.20;;;;;;4997138;28;1255;-69
2023/11/08 11:17:02;;;;;;;;;;;21.50;62.20;;;;;;4994580;28;1397;-70
2023/11/08 11:19:28;;;;;;;;;;;21.50;62.30;;;;;;5006759;28;1003;-69
2023/11/08 11:21:54;;;;;;;;;;;21.50;62.30;;;;;;5016001;28;1321;-69
2023/11/08 11:24:39;;;;;;;;;;;21.50;62.40;;;;;;5017959;28;1349;-69
2023/11/08 11:27:05;;;;;;;;;;;21.40;62.30;;;;;;5001998;28;1553;-68
2023/11/08 11:29:31;;;;;;;;;;;21.40;62.40;;;;;;4998864;28;1281;-68
2023/11/08 11:31:57;;;;;;;;;;;21.40;62.50;;;;;;5005645;28;1425;-69
2023/11/08 11:34:25;;;;;;;;;;;21.40;62.50;;;;;;5002892;28;1724;-69
2023/11/08 11:37:13;;;;;;;;;;;21.40;62.50;;;;;;4998876;28;2089;-69
2023/11/08 11:39:44;;;;;;;;;;;21.40;62.60;;;;;;5012216;28;1209;-68
2023/11/08 11:42:16;;;;;;;;;;;21.40;62.60;;;;;;5000334;28;1388;-68
2023/11/08 11:44:43;;;;;;;;;;;21.40;62.60;;;;;;5014083;28;1914;-69
2023/11/08 11:47:09;;;;;;;;;;;21.40;62.60;;;;;;4999173;28;1543;-69
2023/11/08 11:49:38;;;;;;;;;;;21.40;62.50;;;;;;4998581;28;1456;-69
2023/11/08 11:52:04;;;;;;;;;;;21.40;63.30;;;;;;5002523;28;1935;-69
2023/11/08 11:54:29;;;;;;;;;;;21.40;62.60;;;;;;5005422;28;2143;-69
2023/11/08 11:56:55;;;;;;;;;;;21.40;62.60;;;;;;4999809;28;1310;-69
2023/11/08 11:59:20;;;;;;;;;;;21.40;62.60;;;;;;4999700;28;1413;-69
2023/11/08 12:01:46;;;;;;;;;;;21.40;62.50;;;;;;4999655;28;2135;-69
2023/11/08 12:04:11;;;;;;;;;;;21.50;62.60;;;;;;5002325;28;1439;-69
2023/11/08 12:06:37;;;;;;;;;;;21.50;62.50;;;;;;4998498;28;2073;-69
2023/11/08 12:09:03;;;;;;;;;;;21.50;62.50;;;;;;5000509;28;1436;-69
2023/11/08 12:11:29;;;;;;;;;;;21.60;62.40;;;;;;5006267;28;1386;-69
2023/11/08 12:13:55;;;;;;;;;;;21.60;62.40;;;;;;5002806;28;1414;-69
2023/11/08 12:16:20;;;;;;;;;;;21.70;62.30;;;;;;4998820;28;1370;-69
2023/11/08 12:18:46;;;;;;;;;;;21.70;62.10;;;;;;5002685;28;1346;-69
2023/11/08 12:21:12;;;;;;;;;;;21.80;62.00;;;;;;5003162;28;1395;-71
2023/11/08 12:23:38;;;;;;;;;;;21.80;61.80;;;;;;5004747;28;1310;-71
2023/11/08 12:26:04;;;;;;;;;;;21.90;61.80;;;;;;5005041;28;1910;-71
2023/11/08 12:28:29;;;;;;;;;;;21.90;61.60;;;;;;5003846;28;1376;-69
2023/11/08 12:31:05;;;;;;;;;;;22.00;61.50;;;;;;4979977;28;2027;-69
2023/11/08 12:33:31;;;;;;;;;;;22.00;61.40;;;;;;4999391;28;1351;-69
2023/11/08 12:35:57;;;;;;;;;;;22.10;61.20;;;;;;4999099;28;1154;-69
2023/11/08 12:38:23;;;;;;;;;;;22.10;61.10;;;;;;5002284;28;1300;-70
2023/11/08 12:40:59;;;;;;;;;;;22.20;61.00;;;;;;5000376;28;1505;-70
2023/11/08 12:43:25;;;;;;;;;;;22.20;61.00;;;;;;5017119;28;1457;-69
2023/11/08 12:45:51;;;;;;;;;;;22.20;60.90;;;;;;5000071;28;1979;-69
2023/11/08 12:48:16;;;;;;;;;;;22.20;60.80;;;;;;5015756;28;1328;-69
2023/11/08 12:50:49;;;;;;;;;;;22.20;60.80;;;;;;5001280;28;1202;-69
2023/11/08 12:53:15;;;;;;;;;;;22.20;60.70;;;;;;4998674;28;1362;-69
2023/11/08 12:55:40;;;;;;;;;;;22.20;60.70;;;;;;5001750;28;994;-69
2023/11/08 12:58:19;;;;;;;;;;;22.20;60.70;;;;;;5002429;28;1823;-69
2023/11/08 13:00:44;;;;;;;;;;;22.30;60.70;;;;;;4996702;28;1170;-69
2023/11/08 13:03:09;;;;;;;;;;;22.20;60.70;;;;;;5000966;28;1570;-69
2023/11/08 13:05:35;;;;;;;;;;;22.20;60.70;;;;;;4999227;28;1915;-69
2023/11/08 13:08:00;;;;;;;;;;;22.20;60.70;;;;;;4997681;28;1552;-69
2023/11/08 13:10:26;;;;;;;;;;;22.20;60.80;;;;;;5000507;28;1412;-69
2023/11/08 13:12:51;;;;;;;;;;;22.20;60.90;;;;;;5001527;28;1446;-69
2023/11/08 13:15:17;;;;;;;;;;;22.20;60.90;;;;;;5000347;28;1265;-69
2023/11/08 13:17:43;;;;;;;;;;;22.20;61.70;;;;;;4999780;28;1249;-69
2023/11/08 13:20:09;;;;;;;;;;;22.20;61.00;;;;;;5000284;28;1553;-69
2023/11/08 13:22:35;;;;;;;;;;;22.10;61.00;;;;;;4999773;28;1433;-69
2023/11/08 13:25:00;;;;;;;;;;;22.10;61.00;;;;;;4999201;28;1974;-69
2023/11/08 13:27:25;;;;;;;;;;;22.10;61.10;;;;;;5001273;28;1267;-69
2023/11/08 13:29:51;;;;;;;;;;;22.10;61.20;;;;;;5003588;28;2210;-69
2023/11/08 13:32:16;;;;;;;;;;;22.10;61.20;;;;;;5004373;28;1985;-68
2023/11/08 13:34:42;;;;;;;;;;;22.00;61.30;;;;;;5001534;28;1242;-69
2023/11/08 13:37:07;;;;;;;;;;;22.00;61.30;;;;;;4998371;28;1482;-68
2023/11/08 13:39:33;;;;;;;;;;;22.10;61.50;;;;;;5001208;28;1356;-68
2023/11/08 13:41:59;;;;;;;;;;;22.00;61.40;;;;;;5000257;28;1443;-69
2023/11/08 13:44:25;;;;;;;;;;;22.00;61.40;;;;;;5001459;28;1265;-69
2023/11/08 13:46:50;;;;;;;;;;;21.90;61.50;;;;;;4999110;28;1961;-68
2023/11/08 13:49:16;;;;;;;;;;;21.90;61.50;;;;;;5016227;28;1110;-69
2023/11/08 13:51:41;;;;;;;;;;;21.90;61.60;;;;;;5001602;28;1359;-69
2023/11/08 13:54:07;;;;;;;;;;;21.90;61.70;;;;;;4999451;28;1585;-69
2023/11/08 13:56:33;;;;;;;;;;;21.90;61.80;;;;;;5000677;28;1342;-69
2023/11/08 13:58:59;;;;;;;;;;;21.90;61.80;;;;;;5003315;28;1552;-69
2023/11/08 14:01:24;;;;;;;;;;;21.80;61.80;;;;;;5005197;28;1414;-69
2023/11/08 14:03:50;;;;;;;;;;;21.80;61.90;;;;;;5001973;28;1295;-69
2023/11/08 14:06:15;;;;;;;;;;;21.80;61.90;;;;;;5006117;28;1902;-69
2023/11/08 14:08:41;;;;;;;;;;;21.80;62.00;;;;;;5005562;28;1381;-69
2023/11/08 14:11:07;;;;;;;;;;;21.80;62.10;;;;;;5004943;28;1365;-69
2023/11/08 14:13:33;;;;;;;;;;;21.80;62.10;;;;;;5009687;28;1201;-69
2023/11/08 14:15:59;;;;;;;;;;;21.80;62.20;;;;;;5004998;28;1472;-68
2023/11/08 14:18:24;;;;;;;;;;;21.80;63.00;;;;;;5009011;28;1439;-69
2023/11/08 14:20:53;;;;;;;;;;;21.70;62.20;;;;;;5005461;28;1359;-68
2023/11/08 14:23:18;;;;;;;;;;;21.70;62.30;;;;;;5018980;28;1386;-69
2023/11/08 14:25:43;;;;;;;;;;;21.70;62.30;;;;;;5006386;28;1902;-69